Time;durP1;ratioP1;P1;durP2;ratioP2;P2;SDS_P1;SDS_P2;PMS_P1;PMS_P2;Temp;Humidity;BMP_temperature;BMP_pressure;BME280_temperature;BME280_humidity;BME280_pressure;Samples;Min_cycle;Max_cycle;Signal;HPM_P1;HPM_P2
2023/07/25 00:00:50;;;;;;;5.95;1.92;;;13.40;81.00;;;;;;5048518;28;20053;-78
2023/07/25 00:03:19;;;;;;;8.17;2.30;;;13.40;81.20;;;;;;5048854;28;20135;-78
2023/07/25 00:05:45;;;;;;;7.20;2.53;;;13.40;81.20;;;;;;5048740;28;20269;-78
2023/07/25 00:08:12;;;;;;;6.70;2.42;;;13.30;81.20;;;;;;5050509;28;20049;-78
2023/07/25 00:10:39;;;;;;;7.57;2.30;;;13.30;81.20;;;;;;5050358;28;20749;-78
2023/07/25 00:13:06;;;;;;;6.65;2.40;;;13.30;81.20;;;;;;5050469;28;20081;-78
2023/07/25 00:15:33;;;;;;;7.07;2.30;;;13.30;81.20;;;;;;5048933;28;20608;-78
2023/07/25 00:18:00;;;;;;;8.70;2.53;;;13.30;81.20;;;;;;5049100;28;20265;-78
2023/07/25 00:20:28;;;;;;;6.15;2.47;;;13.30;81.10;;;;;;5048545;28;20191;-78
2023/07/25 00:22:55;;;;;;;5.43;2.30;;;13.40;81.30;;;;;;5048627;28;20046;-78
2023/07/25 00:25:22;;;;;;;6.95;2.22;;;13.40;81.10;;;;;;5048643;28;20053;-78
2023/07/25 00:27:49;;;;;;;6.80;2.70;;;13.30;81.20;;;;;;5048375;28;20069;-78
2023/07/25 00:30:17;;;;;;;8.07;2.45;;;13.30;81.10;;;;;;5032073;28;20261;-78
2023/07/25 00:32:44;;;;;;;7.70;2.30;;;13.30;81.10;;;;;;5031935;28;20500;-78
2023/07/25 00:35:11;;;;;;;6.00;2.50;;;13.30;81.10;;;;;;5031593;28;20507;-78
2023/07/25 00:37:39;;;;;;;6.90;2.47;;;13.30;81.10;;;;;;5048797;28;20053;-78
2023/07/25 00:40:07;;;;;;;10.03;3.33;;;13.30;81.10;;;;;;5032009;28;20053;-78
2023/07/25 00:42:34;;;;;;;9.00;2.63;;;13.30;81.10;;;;;;5028801;28;20304;-78
2023/07/25 00:45:01;;;;;;;6.53;2.72;;;13.30;81.10;;;;;;5062049;28;20111;-78
2023/07/25 00:47:28;;;;;;;9.07;3.30;;;13.30;81.10;;;;;;5065071;28;20160;-78
2023/07/25 00:49:55;;;;;;;8.07;2.58;;;13.30;81.10;;;;;;5047915;28;20058;-78
2023/07/25 00:52:22;;;;;;;9.77;2.80;;;13.30;81.20;;;;;;5031496;28;20050;-79
2023/07/25 00:54:51;;;;;;;6.82;2.53;;;13.30;81.20;;;;;;5045819;28;20857;-79
2023/07/25 00:57:20;;;;;;;6.82;2.83;;;13.30;81.30;;;;;;5031750;28;20127;-78
2023/07/25 00:59:47;;;;;;;6.72;3.08;;;13.30;81.20;;;;;;5031163;28;20811;-78
2023/07/25 01:02:15;;;;;;;7.10;2.60;;;13.30;81.20;;;;;;5031035;28;20429;-78
2023/07/25 01:04:43;;;;;;;8.83;3.10;;;13.30;81.10;;;;;;5047842;28;20057;-78
2023/07/25 01:07:12;;;;;;;8.32;2.88;;;13.30;81.20;;;;;;5048462;28;20266;-78
2023/07/25 01:09:41;;;;;;;7.85;3.42;;;13.30;81.10;;;;;;5031808;28;20307;-78
2023/07/25 01:12:11;;;;;;;6.20;2.80;;;13.30;81.20;;;;;;5049417;28;20053;-78
2023/07/25 01:14:39;;;;;;;6.63;2.88;;;13.30;81.20;;;;;;5031357;28;20081;-78
2023/07/25 01:17:10;;;;;;;6.00;2.60;;;13.30;81.20;;;;;;5031172;28;20045;-78
2023/07/25 01:19:39;;;;;;;7.97;2.72;;;13.30;81.20;;;;;;5048003;28;20283;-78
2023/07/25 01:22:07;;;;;;;7.30;2.80;;;13.30;81.10;;;;;;5049013;28;20053;-78
2023/07/25 01:24:36;;;;;;;8.85;2.92;;;13.30;81.10;;;;;;5030917;28;20049;-78
2023/07/25 01:27:03;;;;;;;6.57;2.63;;;13.20;81.00;;;;;;5030971;28;20053;-78
2023/07/25 01:29:30;;;;;;;8.23;3.00;;;13.20;81.00;;;;;;5049619;28;20046;-78
2023/07/25 01:31:57;;;;;;;6.90;2.65;;;13.20;80.90;;;;;;5047587;28;20347;-78
2023/07/25 01:34:24;;;;;;;6.97;2.42;;;13.20;81.00;;;;;;5030989;28;20054;-78
2023/07/25 01:36:51;;;;;;;7.75;2.72;;;13.20;80.90;;;;;;5030995;28;20053;-78
2023/07/25 01:39:18;;;;;;;8.27;2.42;;;13.20;80.90;;;;;;5047617;28;20053;-78
2023/07/25 01:41:46;;;;;;;7.20;2.10;;;13.10;81.10;;;;;;5030502;28;20044;-78
2023/07/25 01:44:13;;;;;;;8.40;2.45;;;13.10;81.20;;;;;;5047593;28;20272;-78
2023/07/25 01:46:41;;;;;;;7.63;2.38;;;13.10;81.30;;;;;;5030884;28;20056;-78
2023/07/25 01:49:10;;;;;;;7.63;2.63;;;13.10;81.30;;;;;;5030936;28;20566;-78
2023/07/25 01:51:37;;;;;;;8.15;2.70;;;13.10;81.50;;;;;;5030581;28;20160;-78
2023/07/25 01:54:04;;;;;;;6.10;2.50;;;13.10;81.40;;;;;;5030609;28;20053;-78
2023/07/25 01:56:31;;;;;;;9.95;2.60;;;13.10;81.50;;;;;;5030776;28;20765;-78
2023/07/25 01:58:59;;;;;;;6.85;2.80;;;13.10;81.60;;;;;;5030348;28;20053;-78
2023/07/25 02:01:26;;;;;;;8.75;2.88;;;13.00;81.50;;;;;;5030547;28;20052;-78
2023/07/25 02:03:53;;;;;;;6.03;1.83;;;13.00;81.60;;;;;;5030291;28;20680;-78
2023/07/25 02:06:20;;;;;;;8.50;2.57;;;13.00;81.70;;;;;;5046598;28;20053;-78
2023/07/25 02:08:47;;;;;;;8.05;2.17;;;13.00;81.80;;;;;;5030104;28;20323;-78
2023/07/25 02:11:14;;;;;;;8.40;2.83;;;13.00;81.90;;;;;;5046775;28;20049;-78
2023/07/25 02:13:42;;;;;;;8.60;2.50;;;13.00;82.10;;;;;;5047391;28;20053;-79
2023/07/25 02:16:10;;;;;;;7.10;2.58;;;13.00;82.10;;;;;;5047206;28;20575;-79
2023/07/25 02:18:37;;;;;;;6.57;2.30;;;12.90;82.10;;;;;;5030600;28;20080;-78
2023/07/25 02:21:04;;;;;;;6.28;2.45;;;12.90;82.40;;;;;;5030592;28;20419;-79
2023/07/25 02:23:31;;;;;;;7.20;2.95;;;12.90;82.20;;;;;;5029778;28;20049;-78
2023/07/25 02:25:59;;;;;;;7.45;2.58;;;12.90;82.50;;;;;;5029733;28;20100;-79
2023/07/25 02:28:26;;;;;;;6.18;2.38;;;12.90;82.40;;;;;;5048553;28;20046;-79
2023/07/25 02:30:53;;;;;;;7.93;2.80;;;12.90;82.30;;;;;;5030297;28;20053;-79
2023/07/25 02:33:21;;;;;;;7.78;2.80;;;12.90;82.30;;;;;;5028678;28;20269;-79
2023/07/25 02:35:48;;;;;;;7.72;3.30;;;12.90;82.30;;;;;;5045301;28;20054;-79
2023/07/25 02:38:16;;;;;;;7.70;2.70;;;12.90;82.30;;;;;;5046097;28;20153;-79
2023/07/25 02:40:44;;;;;;;9.57;2.72;;;12.90;82.20;;;;;;5044971;28;20562;-78
2023/07/25 02:43:10;;;;;;;9.73;2.80;;;12.90;82.30;;;;;;5046493;28;20486;-79
2023/07/25 02:45:37;;;;;;;7.22;2.33;;;12.90;82.20;;;;;;5028550;28;20272;-79
2023/07/25 02:48:05;;;;;;;7.60;3.00;;;12.90;82.20;;;;;;5029656;28;20128;-79
2023/07/25 02:50:33;;;;;;;6.47;2.72;;;12.90;82.30;;;;;;5029966;28;20152;-79
2023/07/25 02:52:59;;;;;;;9.70;2.90;;;12.90;82.40;;;;;;5030321;28;20058;-79
2023/07/25 02:55:26;;;;;;;9.53;2.90;;;12.90;82.40;;;;;;5030341;28;20046;-79
2023/07/25 02:57:53;;;;;;;7.22;2.40;;;12.90;82.50;;;;;;5029999;28;20056;-78
2023/07/25 03:00:20;;;;;;;8.07;2.60;;;12.90;82.60;;;;;;5030046;28;20444;-79
2023/07/25 03:02:47;;;;;;;6.72;2.08;;;12.90;82.70;;;;;;5029948;28;20054;-78
2023/07/25 03:05:15;;;;;;;7.22;2.45;;;12.90;82.70;;;;;;5030010;28;20480;-78
2023/07/25 03:07:43;;;;;;;7.17;2.60;;;12.90;82.90;;;;;;5046466;28;20060;-79
2023/07/25 03:10:11;;;;;;;7.20;2.42;;;12.90;82.90;;;;;;5046136;28;20149;-79
2023/07/25 03:12:38;;;;;;;6.32;2.35;;;12.90;82.90;;;;;;5030172;28;20049;-78
2023/07/25 03:15:05;;;;;;;6.30;2.58;;;12.90;82.80;;;;;;5029590;28;20053;-79
2023/07/25 03:17:33;;;;;;;7.45;2.47;;;12.90;82.80;;;;;;5046145;28;20046;-78
2023/07/25 03:20:00;;;;;;;9.23;2.83;;;12.90;83.10;;;;;;5032568;28;20056;-79
2023/07/25 03:22:27;;;;;;;6.35;2.60;;;12.90;83.10;;;;;;5032676;28;20045;-79
2023/07/25 03:24:55;;;;;;;7.13;2.45;;;12.90;83.20;;;;;;5032774;28;20061;-79
2023/07/25 03:27:23;;;;;;;6.53;2.47;;;12.90;83.20;;;;;;5032674;28;20052;-78
2023/07/25 03:29:50;;;;;;;7.63;2.63;;;12.90;83.40;;;;;;5032821;28;20055;-79
2023/07/25 03:32:17;;;;;;;5.83;2.37;;;12.90;83.40;;;;;;5032370;28;20132;-78
2023/07/25 03:34:44;;;;;;;8.50;2.35;;;12.90;83.50;;;;;;5050831;28;20416;-78
2023/07/25 03:37:11;;;;;;;9.65;3.40;;;12.90;83.50;;;;;;5049520;28;20053;-79
2023/07/25 03:39:38;;;;;;;7.35;2.78;;;12.90;83.60;;;;;;5033015;28;20138;-79
2023/07/25 03:42:07;;;;;;;10.35;2.83;;;12.90;83.60;;;;;;5049119;28;20053;-79
2023/07/25 03:44:34;;;;;;;6.90;2.50;;;12.90;83.70;;;;;;5048876;28;20056;-79
2023/07/25 03:47:01;;;;;;;6.00;2.40;;;12.90;83.70;;;;;;5049323;28;20053;-78
2023/07/25 03:49:28;;;;;;;10.30;2.90;;;12.90;83.80;;;;;;5032469;28;20042;-79
2023/07/25 03:51:55;;;;;;;8.05;2.55;;;12.90;84.00;;;;;;5031892;28;20136;-79
2023/07/25 03:54:23;;;;;;;7.22;2.70;;;12.90;83.90;;;;;;5032369;28;20056;-79
2023/07/25 03:56:50;;;;;;;8.17;2.60;;;13.00;83.90;;;;;;5050886;28;20471;-78
2023/07/25 03:59:19;;;;;;;7.85;2.67;;;13.00;83.90;;;;;;5048921;28;20096;-78
2023/07/25 04:01:46;;;;;;;9.30;2.67;;;13.00;84.00;;;;;;5032433;28;20050;-79
2023/07/25 04:04:13;;;;;;;8.60;2.92;;;13.00;84.10;;;;;;5032653;28;20057;-79
2023/07/25 04:06:40;;;;;;;7.97;2.67;;;13.00;84.20;;;;;;5032530;28;20515;-79
2023/07/25 04:09:07;;;;;;;7.63;2.27;;;13.00;84.20;;;;;;5032686;28;20497;-79
2023/07/25 04:11:34;;;;;;;7.95;2.15;;;13.00;84.40;;;;;;5048646;28;20741;-79
2023/07/25 04:14:00;;;;;;;9.20;2.60;;;13.00;84.70;;;;;;5032377;28;20140;-79
2023/07/25 04:16:29;;;;;;;7.57;2.22;;;13.10;84.50;;;;;;5048846;28;20103;-79
2023/07/25 04:18:56;;;;;;;7.95;2.63;;;13.10;84.30;;;;;;5048883;28;20622;-78
2023/07/25 04:21:22;;;;;;;5.53;2.00;;;13.10;84.30;;;;;;5032150;28;20053;-79
2023/07/25 04:23:49;;;;;;;8.07;2.72;;;13.10;84.30;;;;;;5050616;28;20131;-78
2023/07/25 04:26:16;;;;;;;9.18;2.70;;;13.10;84.30;;;;;;5031945;28;20053;-79
2023/07/25 04:28:43;;;;;;;8.75;2.45;;;13.10;84.30;;;;;;5032060;28;20494;-79
2023/07/25 04:31:10;;;;;;;8.52;2.17;;;13.10;84.30;;;;;;5048657;28;20057;-79
2023/07/25 04:33:39;;;;;;;7.27;2.23;;;13.10;84.50;;;;;;5048376;28;20056;-79
2023/07/25 04:36:06;;;;;;;8.85;2.38;;;13.10;84.60;;;;;;5027924;28;20487;-79
2023/07/25 04:38:33;;;;;;;7.13;2.47;;;13.10;84.50;;;;;;5040318;28;20080;-78
2023/07/25 04:41:00;;;;;;;6.68;2.40;;;13.10;84.50;;;;;;5031285;28;20479;-78
2023/07/25 04:43:27;;;;;;;8.48;2.70;;;13.10;84.60;;;;;;5065471;28;20140;-78
2023/07/25 04:45:54;;;;;;;6.80;2.00;;;13.10;84.60;;;;;;5031587;28;20487;-79
2023/07/25 04:48:21;;;;;;;7.95;2.40;;;13.10;84.60;;;;;;5031719;28;20581;-79
2023/07/25 04:50:49;;;;;;;6.63;2.33;;;13.10;84.70;;;;;;5048056;28;20103;-78
2023/07/25 04:53:16;;;;;;;7.97;2.17;;;13.20;84.80;;;;;;5031708;28;20046;-79
2023/07/25 04:55:43;;;;;;;7.22;2.20;;;13.20;84.80;;;;;;5031607;28;20046;-78
2023/07/25 04:58:10;;;;;;;7.13;2.10;;;13.20;84.70;;;;;;5048189;28;20461;-79
2023/07/25 05:00:37;;;;;;;9.00;2.30;;;13.30;84.80;;;;;;5031307;28;20045;-79
2023/07/25 05:03:04;;;;;;;7.15;2.05;;;13.30;84.80;;;;;;5031121;28;20049;-78
2023/07/25 05:05:31;;;;;;;7.15;1.92;;;13.30;84.80;;;;;;5047738;28;20054;-79
2023/07/25 05:07:59;;;;;;;9.43;2.15;;;13.30;84.80;;;;;;5046905;28;20431;-79
2023/07/25 05:10:26;;;;;;;5.33;1.60;;;13.30;84.70;;;;;;5045936;28;20045;-79
2023/07/25 05:12:53;;;;;;;7.43;2.10;;;13.30;84.60;;;;;;5045476;28;20593;-79
2023/07/25 05:15:20;;;;;;;9.73;2.20;;;13.40;84.60;;;;;;5046910;28;20054;-79
2023/07/25 05:17:47;;;;;;;7.65;1.70;;;13.50;84.50;;;;;;5045679;28;20523;-79
2023/07/25 05:20:14;;;;;;;5.35;1.27;;;13.50;84.60;;;;;;5045475;28;20599;-78
2023/07/25 05:22:41;;;;;;;4.87;1.60;;;13.50;84.30;;;;;;5042338;28;20053;-79
2023/07/25 05:25:10;;;;;;;11.07;2.00;;;13.50;84.20;;;;;;5047189;28;20057;-79
2023/07/25 05:27:37;;;;;;;7.85;1.60;;;13.50;84.10;;;;;;5047157;28;20054;-79
2023/07/25 05:30:04;;;;;;;7.20;1.70;;;13.60;84.00;;;;;;5043816;28;20053;-79
2023/07/25 05:32:31;;;;;;;6.82;1.70;;;13.60;83.70;;;;;;5046828;28;20049;-79
2023/07/25 05:34:58;;;;;;;6.00;1.57;;;13.60;83.60;;;;;;5045761;28;20479;-79
2023/07/25 05:37:35;;;;;;;4.93;1.40;;;13.70;83.60;;;;;;5048425;28;20064;-79
2023/07/25 05:40:03;;;;;;;7.80;1.27;;;13.70;83.40;;;;;;5046653;28;20051;-79
2023/07/25 05:42:31;;;;;;;6.63;1.30;;;13.70;83.30;;;;;;5080091;28;20050;-78
2023/07/25 05:44:59;;;;;;;7.13;1.48;;;13.70;83.00;;;;;;5030476;28;20141;-78
2023/07/25 05:47:26;;;;;;;6.33;1.40;;;13.80;82.80;;;;;;5046537;28;20124;-79
2023/07/25 05:49:53;;;;;;;5.80;1.30;;;13.80;82.60;;;;;;5046721;28;20049;-78
2023/07/25 05:52:20;;;;;;;6.50;1.40;;;13.90;82.60;;;;;;5046069;28;20045;-79
2023/07/25 05:54:48;;;;;;;9.40;1.30;;;13.90;82.00;;;;;;5048306;28;20087;-78
2023/07/25 05:57:16;;;;;;;3.47;0.98;;;13.90;81.20;;;;;;5080115;28;20046;-78
2023/07/25 05:59:44;;;;;;;5.97;1.57;;;13.90;80.70;;;;;;5046516;28;20663;-77
2023/07/25 06:02:11;;;;;;;4.57;1.20;;;13.90;80.60;;;;;;5052640;28;20053;-79
2023/07/25 06:04:38;;;;;;;3.90;1.17;;;13.90;80.40;;;;;;5055984;28;20053;-79
2023/07/25 06:07:06;;;;;;;6.03;1.13;;;13.90;80.70;;;;;;5078861;28;20063;-79
2023/07/25 06:09:33;;;;;;;6.78;1.15;;;14.00;80.30;;;;;;5052657;28;20148;-79
2023/07/25 06:12:00;;;;;;;6.27;1.40;;;14.00;80.00;;;;;;5043516;28;20061;-79
2023/07/25 06:14:27;;;;;;;3.30;0.90;;;14.00;79.80;;;;;;5052176;28;20069;-79
2023/07/25 06:16:55;;;;;;;8.40;1.25;;;14.10;80.00;;;;;;5046891;28;20049;-79
2023/07/25 06:19:23;;;;;;;3.30;0.88;;;14.10;79.20;;;;;;5047003;28;20045;-79
2023/07/25 06:21:50;;;;;;;5.65;1.20;;;14.10;78.70;;;;;;5052922;28;20327;-79
2023/07/25 06:24:17;;;;;;;7.67;1.27;;;14.10;78.90;;;;;;5048994;28;20497;-79
2023/07/25 06:26:44;;;;;;;6.03;1.00;;;14.20;79.10;;;;;;5045453;28;20045;-79
2023/07/25 06:29:11;;;;;;;3.67;0.90;;;14.20;79.10;;;;;;5047781;28;20633;-79
2023/07/25 06:31:40;;;;;;;6.97;1.27;;;14.20;78.30;;;;;;5046242;28;20131;-79
2023/07/25 06:34:08;;;;;;;7.18;1.13;;;14.30;78.30;;;;;;5047856;28;20050;-79
2023/07/25 06:36:35;;;;;;;4.40;1.20;;;14.30;78.10;;;;;;5044136;28;20046;-79
2023/07/25 06:39:02;;;;;;;5.97;1.00;;;14.30;78.10;;;;;;5029372;28;20574;-79
2023/07/25 06:41:29;;;;;;;6.43;1.30;;;14.30;77.60;;;;;;5035499;28;20056;-79
2023/07/25 06:44:01;;;;;;;7.10;1.38;;;14.40;77.70;;;;;;5063479;28;20140;-79
2023/07/25 06:46:28;;;;;;;5.80;1.08;;;14.30;78.00;;;;;;5063333;28;20514;-79
2023/07/25 06:48:55;;;;;;;5.13;0.60;;;14.40;77.80;;;;;;5046177;28;20050;-79
2023/07/25 06:51:23;;;;;;;8.25;0.90;;;14.40;77.80;;;;;;5043235;28;20041;-79
2023/07/25 06:53:50;;;;;;;4.25;0.73;;;14.40;77.70;;;;;;5046034;28;20058;-79
2023/07/25 06:56:17;;;;;;;7.57;1.05;;;14.50;77.60;;;;;;5049363;28;20072;-79
2023/07/25 06:58:44;;;;;;;6.53;1.00;;;14.50;77.60;;;;;;5069479;28;20571;-78
2023/07/25 07:01:10;;;;;;;5.90;0.90;;;14.60;77.50;;;;;;5069582;28;20045;-79
2023/07/25 07:03:37;;;;;;;7.82;0.90;;;14.60;76.90;;;;;;5071331;28;20075;-81
2023/07/25 07:06:04;;;;;;;3.45;0.70;;;14.60;76.20;;;;;;5069190;28;20071;-80
2023/07/25 07:08:32;;;;;;;2.78;0.47;;;14.60;76.40;;;;;;5069462;28;20061;-80
2023/07/25 07:10:59;;;;;;;4.35;0.50;;;14.60;76.20;;;;;;5066046;28;20060;-80
2023/07/25 07:13:27;;;;;;;4.30;0.60;;;14.70;75.40;;;;;;5047834;28;20580;-80
2023/07/25 07:15:54;;;;;;;2.60;0.40;;;14.70;75.30;;;;;;5048114;28;20046;-80
2023/07/25 07:18:21;;;;;;;4.60;0.70;;;14.70;73.40;;;;;;5083242;28;20075;-80
2023/07/25 07:20:49;;;;;;;3.55;0.50;;;14.80;73.30;;;;;;5051107;28;20608;-80
2023/07/25 07:23:17;;;;;;;1.80;0.32;;;14.80;74.10;;;;;;5049332;28;20054;-80
2023/07/25 07:25:45;;;;;;;5.37;0.57;;;14.80;73.20;;;;;;5064819;28;20785;-80
2023/07/25 07:28:13;;;;;;;4.80;0.60;;;14.90;72.20;;;;;;5048098;28;20502;-80
2023/07/25 07:30:40;;;;;;;2.88;0.30;;;14.90;72.80;;;;;;5081992;28;20058;-80
2023/07/25 07:33:07;;;;;;;4.28;0.40;;;14.90;71.20;;;;;;5045339;28;20263;-80
2023/07/25 07:35:34;;;;;;;4.20;0.40;;;14.90;69.90;;;;;;5054828;28;20048;-80
2023/07/25 07:38:01;;;;;;;6.00;0.40;;;15.00;70.50;;;;;;5044707;28;20546;-81
2023/07/25 07:40:29;;;;;;;3.42;0.40;;;15.00;70.10;;;;;;5053783;28;20143;-84
2023/07/25 07:42:59;;;;;;;3.28;0.40;;;15.00;69.00;;;;;;5084570;28;20059;-86
2023/07/25 07:45:27;;;;;;;3.13;0.40;;;15.00;69.00;;;;;;5063457;28;20129;-80
2023/07/25 07:47:54;;;;;;;3.83;0.50;;;15.00;69.60;;;;;;5056545;28;20057;-79
2023/07/25 07:50:21;;;;;;;5.70;0.57;;;15.00;69.60;;;;;;5063740;28;20046;-80
2023/07/25 07:52:49;;;;;;;2.20;0.40;;;15.10;70.00;;;;;;5047178;28;20504;-80
2023/07/25 07:55:17;;;;;;;3.92;0.57;;;15.10;70.40;;;;;;5050284;28;20059;-81
2023/07/25 07:57:45;;;;;;;3.65;0.50;;;15.20;71.10;;;;;;5051067;28;20080;-82
2023/07/25 08:00:16;;;;;;;3.72;0.45;;;15.20;71.20;;;;;;5053629;28;20048;-80
2023/07/25 08:02:44;;;;;;;4.57;0.43;;;15.20;71.20;;;;;;5080662;28;20056;-83
2023/07/25 08:05:12;;;;;;;6.13;0.65;;;15.20;71.00;;;;;;5047961;28;20084;-82
2023/07/25 08:07:39;;;;;;;2.90;0.40;;;15.20;70.50;;;;;;5048468;28;20158;-83
2023/07/25 08:10:07;;;;;;;4.45;0.63;;;15.30;71.00;;;;;;5082562;28;20108;-81
2023/07/25 08:12:34;;;;;;;3.83;0.50;;;15.30;70.60;;;;;;5029073;28;20053;-82
2023/07/25 08:15:01;;;;;;;3.07;0.50;;;15.30;71.00;;;;;;5049591;28;20045;-80
2023/07/25 08:17:30;;;;;;;3.70;0.55;;;15.40;70.80;;;;;;5045381;28;20049;-80
2023/07/25 08:19:57;;;;;;;3.88;0.50;;;15.40;70.30;;;;;;5047823;28;20147;-81
2023/07/25 08:22:24;;;;;;;6.30;0.55;;;15.50;68.70;;;;;;5064441;28;20053;-82
2023/07/25 08:24:53;;;;;;;4.53;0.82;;;15.50;69.30;;;;;;5025740;28;20050;-84
2023/07/25 08:27:20;;;;;;;3.33;0.40;;;15.50;69.10;;;;;;5047883;28;20088;-83
2023/07/25 08:29:47;;;;;;;4.20;0.60;;;15.50;69.20;;;;;;5064660;28;20052;-80
2023/07/25 08:32:14;;;;;;;3.00;0.40;;;15.50;69.50;;;;;;5043995;28;20527;-86
2023/07/25 08:34:43;;;;;;;4.28;0.50;;;15.60;69.70;;;;;;5064538;28;20081;-81
2023/07/25 08:37:09;;;;;;;3.97;0.40;;;15.60;69.50;;;;;;5047927;28;20081;-80
2023/07/25 08:39:36;;;;;;;3.87;0.50;;;15.60;68.20;;;;;;5046804;28;20503;-80
2023/07/25 08:42:06;;;;;;;3.05;0.32;;;15.60;69.40;;;;;;5047028;28;20115;-80
2023/07/25 08:44:35;;;;;;;3.63;0.40;;;15.70;69.50;;;;;;5047215;28;20578;-79
2023/07/25 08:47:07;;;;;;;1.65;0.20;;;15.70;69.80;;;;;;5047598;28;20049;-81
2023/07/25 08:49:36;;;;;;;2.85;0.45;;;15.80;69.20;;;;;;5081421;28;20153;-84
2023/07/25 08:52:08;;;;;;;5.77;0.50;;;15.80;68.70;;;;;;5063372;28;20575;-79
2023/07/25 08:54:36;;;;;;;3.15;0.28;;;15.80;69.50;;;;;;5046774;28;20135;-82
2023/07/25 08:57:04;;;;;;;2.72;0.30;;;15.90;69.20;;;;;;5081032;28;20405;-80
2023/07/25 08:59:32;;;;;;;3.55;0.45;;;16.00;67.70;;;;;;5081364;28;20053;-82
2023/07/25 09:01:59;;;;;;;4.53;0.40;;;16.00;68.40;;;;;;5048051;28;20061;-83
2023/07/25 09:04:27;;;;;;;4.33;0.60;;;16.00;68.40;;;;;;5047005;28;20618;-83
2023/07/25 09:06:55;;;;;;;3.17;0.40;;;16.00;68.00;;;;;;5044970;28;20112;-84
2023/07/25 09:09:24;;;;;;;5.13;0.57;;;16.00;68.50;;;;;;5047071;28;20081;-84
2023/07/25 09:11:52;;;;;;;4.15;0.63;;;16.10;67.30;;;;;;5063321;28;20091;-85
2023/07/25 09:14:19;;;;;;;3.53;0.50;;;16.10;67.90;;;;;;5046944;28;20045;-81
2023/07/25 09:16:46;;;;;;;2.67;0.50;;;16.10;67.50;;;;;;5046540;28;20136;-82
2023/07/25 09:19:13;;;;;;;3.00;0.45;;;16.10;67.50;;;;;;5047311;28;20050;-80
2023/07/25 09:21:47;;;;;;;3.58;0.50;;;16.20;65.60;;;;;;5047030;28;20743;-80
2023/07/25 09:24:15;;;;;;;4.60;0.40;;;16.20;65.40;;;;;;5046743;28;20618;-80
2023/07/25 09:26:49;;;;;;;4.40;0.50;;;16.20;64.80;;;;;;5030615;28;20041;-81
2023/07/25 09:29:17;;;;;;;3.33;0.40;;;16.30;65.80;;;;;;5047040;28;20050;-83
2023/07/25 09:31:45;;;;;;;3.28;0.70;;;16.40;63.90;;;;;;5048417;28;20057;-86
2023/07/25 09:34:16;;;;;;;4.13;0.60;;;16.40;63.50;;;;;;5047440;28;20051;-83
2023/07/25 09:36:47;;;;;;;3.08;0.63;;;16.40;63.00;;;;;;5042418;28;20060;-80
2023/07/25 09:39:14;;;;;;;4.20;0.50;;;16.40;64.20;;;;;;5077155;28;20511;-80
2023/07/25 09:41:45;;;;;;;2.23;0.40;;;16.50;64.30;;;;;;5047871;28;20053;-82
2023/07/25 09:44:12;;;;;;;2.58;0.40;;;16.50;64.10;;;;;;5064478;28;20064;-81
2023/07/25 09:46:39;;;;;;;3.15;0.43;;;16.50;62.50;;;;;;5055005;28;20060;-81
2023/07/25 09:49:06;;;;;;;4.28;0.50;;;16.60;61.80;;;;;;5072760;28;20086;-79
2023/07/25 09:51:33;;;;;;;2.22;0.50;;;16.60;61.60;;;;;;5045379;28;20139;-79
2023/07/25 09:54:05;;;;;;;2.90;0.40;;;16.60;61.60;;;;;;5046017;28;20041;-78
2023/07/25 09:56:32;;;;;;;2.75;0.50;;;16.70;62.00;;;;;;5042989;28;20903;-78
2023/07/25 09:59:02;;;;;;;3.85;0.40;;;16.70;62.30;;;;;;5041118;28;20507;-78
2023/07/25 10:01:29;;;;;;;2.55;0.40;;;16.80;61.60;;;;;;5057428;28;20051;-78
2023/07/25 10:03:56;;;;;;;2.90;0.43;;;16.80;62.20;;;;;;5055824;28;20052;-79
2023/07/25 10:06:24;;;;;;;2.60;0.43;;;16.90;61.60;;;;;;5052303;28;20085;-79
2023/07/25 10:08:52;;;;;;;4.45;0.52;;;16.90;61.80;;;;;;5059279;28;20656;-78
2023/07/25 10:11:21;;;;;;;4.63;0.47;;;17.00;61.60;;;;;;5047651;28;20080;-79
2023/07/25 10:13:51;;;;;;;2.70;0.30;;;17.00;61.90;;;;;;5043474;28;20045;-78
2023/07/25 10:16:20;;;;;;;1.60;0.32;;;17.10;60.80;;;;;;5043797;28;20053;-79
2023/07/25 10:18:54;;;;;;;3.37;0.70;;;17.20;59.80;;;;;;5044977;28;20630;-79
2023/07/25 10:21:26;;;;;;;2.70;0.77;;;17.20;61.40;;;;;;5042728;28;20163;-79
2023/07/25 10:23:59;;;;;;;2.92;0.60;;;17.20;60.00;;;;;;5045577;28;20547;-78
2023/07/25 10:26:27;;;;;;;4.45;0.43;;;17.30;60.80;;;;;;5043557;28;20076;-79
2023/07/25 10:28:54;;;;;;;3.40;0.55;;;17.30;60.10;;;;;;5049020;28;20053;-78
2023/07/25 10:31:33;;;;;;;2.60;0.40;;;17.40;60.70;;;;;;5050366;28;20045;-79
2023/07/25 10:34:00;;;;;;;3.05;0.45;;;17.40;61.60;;;;;;5064323;28;20507;-79
2023/07/25 10:36:28;;;;;;;4.13;0.57;;;17.50;61.10;;;;;;5052972;28;20049;-78
2023/07/25 10:39:06;;;;;;;3.88;0.52;;;17.50;61.70;;;;;;5050101;28;20049;-79
2023/07/25 10:41:33;;;;;;;4.93;0.60;;;17.50;62.20;;;;;;5063963;28;20428;-79
2023/07/25 10:44:01;;;;;;;4.50;0.40;;;17.50;62.80;;;;;;5058303;28;20045;-78
2023/07/25 10:46:31;;;;;;;4.82;0.50;;;17.60;62.40;;;;;;5047930;28;21035;-78
2023/07/25 10:49:01;;;;;;;2.72;0.50;;;17.60;61.20;;;;;;5053716;28;20431;-78
2023/07/25 10:51:49;;;;;;;4.82;0.60;;;17.60;61.90;;;;;;5052073;28;20542;-78
2023/07/25 10:54:17;;;;;;;3.35;0.60;;;17.70;62.00;;;;;;5041257;28;20038;-79
2023/07/25 10:57:14;;;;;;;3.30;0.50;;;17.80;61.60;;;;;;5049684;28;20050;-79
2023/07/25 11:00:01;;;;;;;3.42;0.60;;;17.80;58.70;;;;;;5060347;28;20055;-79
2023/07/25 11:02:33;;;;;;;4.45;0.55;;;17.80;58.80;;;;;;5057842;28;20632;-79
2023/07/25 11:05:23;;;;;;;3.38;0.40;;;17.80;58.30;;;;;;5047797;28;20050;-79
2023/07/25 11:07:53;;;;;;;3.40;0.55;;;17.80;59.50;;;;;;5078188;28;20052;-79
2023/07/25 11:10:21;;;;;;;4.33;0.60;;;17.80;60.10;;;;;;5044920;28;20049;-79
2023/07/25 11:12:51;;;;;;;3.38;0.52;;;17.80;60.20;;;;;;5045683;28;20093;-80
2023/07/25 11:15:18;;;;;;;2.67;0.40;;;17.90;60.10;;;;;;5042663;28;20054;-79
2023/07/25 11:17:47;;;;;;;3.95;0.65;;;18.00;60.20;;;;;;5042706;28;20192;-79
2023/07/25 11:20:16;;;;;;;3.50;0.50;;;18.00;60.60;;;;;;5043173;28;20045;-79
2023/07/25 11:22:43;;;;;;;5.27;0.40;;;18.00;59.60;;;;;;5078094;28;20429;-78
2023/07/25 11:25:10;;;;;;;4.10;0.50;;;18.00;58.80;;;;;;5046162;28;20046;-78
2023/07/25 11:27:41;;;;;;;4.80;0.60;;;18.00;59.70;;;;;;5047839;28;20056;-78
2023/07/25 11:30:13;;;;;;;2.72;0.50;;;18.00;59.40;;;;;;5048896;28;20056;-78
2023/07/25 11:32:40;;;;;;;2.70;0.60;;;18.00;58.50;;;;;;5047797;28;20494;-78
2023/07/25 11:35:09;;;;;;;3.00;0.57;;;18.10;58.50;;;;;;5077792;28;20508;-78
2023/07/25 11:37:36;;;;;;;2.53;0.40;;;18.10;58.70;;;;;;5048841;28;20049;-78
2023/07/25 11:40:14;;;;;;;2.97;0.50;;;18.10;59.90;;;;;;5046678;28;20492;-78
2023/07/25 11:42:41;;;;;;;3.20;0.40;;;18.20;60.20;;;;;;5045980;28;20054;-78
2023/07/25 11:45:11;;;;;;;2.42;0.50;;;18.30;59.30;;;;;;5047923;28;20050;-78
2023/07/25 11:47:39;;;;;;;2.90;0.70;;;18.30;57.10;;;;;;5045809;28;20053;-78
2023/07/25 11:50:10;;;;;;;2.88;0.40;;;18.40;58.00;;;;;;5047143;28;21445;-78
2023/07/25 11:52:40;;;;;;;4.38;0.60;;;18.50;58.00;;;;;;5049599;28;20506;-78
2023/07/25 11:55:08;;;;;;;2.38;0.30;;;18.50;57.50;;;;;;5041721;28;20034;-78
2023/07/25 11:57:36;;;;;;;3.15;0.55;;;18.50;57.40;;;;;;5050199;28;20092;-78
2023/07/25 12:00:06;;;;;;;2.73;0.70;;;18.50;57.30;;;;;;5030646;28;20109;-78
2023/07/25 12:02:36;;;;;;;5.78;0.70;;;18.50;56.30;;;;;;5076159;28;20049;-78
2023/07/25 12:05:04;;;;;;;2.65;0.45;;;18.40;56.80;;;;;;5047171;28;20096;-78
2023/07/25 12:07:51;;;;;;;3.50;0.40;;;18.40;57.60;;;;;;5047416;28;20046;-78
2023/07/25 12:10:27;;;;;;;3.45;0.50;;;18.30;57.40;;;;;;5046463;28;20115;-78
2023/07/25 12:12:55;;;;;;;1.23;0.20;;;18.30;56.70;;;;;;5045977;28;20065;-78
2023/07/25 12:15:23;;;;;;;3.33;0.40;;;18.30;56.80;;;;;;5047438;28;20137;-78
2023/07/25 12:17:51;;;;;;;2.17;0.50;;;18.20;56.80;;;;;;5047825;28;20538;-78
2023/07/25 12:20:20;;;;;;;2.70;0.43;;;18.10;57.90;;;;;;5044746;28;20050;-78
2023/07/25 12:22:48;;;;;;;5.53;0.52;;;18.10;57.60;;;;;;5046009;28;20057;-78
2023/07/25 12:25:20;;;;;;;4.93;0.60;;;18.10;57.80;;;;;;5078282;28;20057;-78
2023/07/25 12:27:48;;;;;;;3.17;0.60;;;18.10;57.10;;;;;;5045036;28;20050;-78
2023/07/25 12:30:16;;;;;;;2.53;0.40;;;18.10;58.00;;;;;;5048771;28;20076;-78
2023/07/25 12:32:43;;;;;;;2.22;0.40;;;18.10;57.90;;;;;;5021996;28;20046;-78
2023/07/25 12:35:11;;;;;;;3.97;0.50;;;18.10;57.60;;;;;;5043112;28;20054;-78
2023/07/25 12:37:38;;;;;;;3.47;0.60;;;18.20;57.80;;;;;;5041751;28;20392;-78
2023/07/25 12:40:07;;;;;;;3.05;0.47;;;18.20;57.70;;;;;;5043555;28;20061;-79
2023/07/25 12:42:36;;;;;;;3.70;0.60;;;18.20;57.50;;;;;;5030345;28;20111;-79
2023/07/25 12:45:05;;;;;;;3.33;0.70;;;18.30;57.40;;;;;;5046268;28;20053;-79
2023/07/25 12:47:34;;;;;;;2.95;0.55;;;18.30;58.40;;;;;;5037936;28;20050;-80
2023/07/25 12:50:01;;;;;;;3.83;0.50;;;18.30;57.60;;;;;;5079824;28;20710;-79